Time;durP1;ratioP1;P1;durP2;ratioP2;P2;SDS_P1;SDS_P2;PMS_P1;PMS_P2;Temp;Humidity;BMP_temperature;BMP_pressure;BME280_temperature;BME280_humidity;BME280_pressure;Samples;Min_cycle;Max_cycle;Signal;HPM_P1;HPM_P2
2022/09/11 14:21:22;;;;;;;15.05;6.82;;;19.60;99.90;;;;;;5043868;22;20162;-86
2022/09/11 14:23:52;;;;;;;;;;;19.60;99.90;;;;;;5002277;28;20525;-86
2022/09/11 14:26:21;;;;;;;9.45;6.13;;;19.60;99.90;;;;;;5006190;28;19913;-86
2022/09/11 14:28:52;;;;;;;8.85;5.30;;;19.60;99.90;;;;;;5005754;28;20030;-85
2022/09/11 14:31:35;;;;;;;10.52;6.88;;;19.60;99.90;;;;;;5010958;28;20395;-86
2022/09/11 14:34:19;;;;;;;9.77;6.32;;;19.60;99.90;;;;;;5003816;28;20029;-86
2022/09/11 14:36:57;;;;;;;8.73;5.30;;;19.80;99.90;;;;;;5005527;28;20030;-86
2022/09/11 14:39:46;;;;;;;11.20;6.10;;;19.70;99.90;;;;;;5006748;28;20026;-87
2022/09/11 14:42:19;;;;;;;8.93;6.50;;;19.80;99.90;;;;;;5006436;28;20026;-87
2022/09/11 14:44:45;;;;;;;6.03;4.88;;;19.80;99.90;;;;;;5007718;28;20122;-87
2022/09/11 14:47:16;;;;;;;14.52;6.00;;;19.80;99.90;;;;;;5009144;28;20041;-88
2022/09/11 14:49:43;;;;;;;8.52;5.25;;;19.80;99.90;;;;;;5009042;28;20057;-87
2022/09/11 14:52:14;;;;;;;9.05;5.47;;;19.80;99.90;;;;;;5008569;28;20487;-87
2022/09/11 14:54:40;;;;;;;9.80;6.07;;;19.90;99.90;;;;;;5007228;28;20033;-88
2022/09/11 14:57:17;;;;;;;11.88;6.47;;;19.90;99.90;;;;;;5009984;28;20112;-87
2022/09/11 14:59:42;;;;;;;9.55;6.28;;;19.90;99.90;;;;;;5007183;28;20069;-87
2022/09/11 15:02:13;;;;;;;9.25;5.45;;;19.80;99.90;;;;;;5009543;28;20080;-86
2022/09/11 15:04:39;;;;;;;9.40;6.32;;;19.70;99.90;;;;;;5009501;28;20033;-89
2022/09/11 15:07:09;;;;;;;12.02;6.78;;;19.70;99.90;;;;;;5006902;28;20423;-89
2022/09/11 15:09:34;;;;;;;8.98;5.95;;;19.70;99.90;;;;;;5006440;28;20030;-87
2022/09/11 15:12:00;;;;;;;10.38;5.75;;;19.80;99.90;;;;;;5007644;28;20037;-87
2022/09/11 15:14:26;;;;;;;15.15;6.43;;;19.80;99.90;;;;;;5008118;28;20081;-87
2022/09/11 15:16:56;;;;;;;11.90;6.43;;;19.90;99.90;;;;;;5009391;28;20050;-87
2022/09/11 15:19:21;;;;;;;10.43;5.90;;;19.90;99.90;;;;;;5009057;28;20034;-88
2022/09/11 15:21:47;;;;;;;9.55;6.20;;;19.90;99.90;;;;;;5009125;28;20061;-89
2022/09/11 15:24:13;;;;;;;11.55;7.15;;;19.80;99.90;;;;;;5007827;28;20030;-88
2022/09/11 15:26:39;;;;;;;10.55;6.50;;;19.80;99.90;;;;;;5009358;28;20045;-88
2022/09/11 15:29:08;;;;;;;11.68;6.80;;;19.80;99.90;;;;;;5005374;28;20022;-88
2022/09/11 15:31:35;;;;;;;10.52;6.68;;;19.80;99.90;;;;;;5006701;28;20042;-89
2022/09/11 15:34:05;;;;;;;9.40;6.43;;;19.80;99.90;;;;;;5004624;28;20030;-87
2022/09/11 15:36:36;;;;;;;10.30;6.13;;;19.80;99.90;;;;;;5008771;28;20045;-88
2022/09/11 15:39:03;;;;;;;8.18;5.25;;;19.80;99.90;;;;;;5004479;28;20040;-89
2022/09/11 15:41:29;;;;;;;9.88;5.93;;;19.90;99.90;;;;;;5004245;28;20045;-86
2022/09/11 15:43:55;;;;;;;9.13;6.28;;;19.80;99.90;;;;;;5006311;28;21091;-88
2022/09/11 15:46:21;;;;;;;9.02;5.43;;;19.80;99.90;;;;;;5007502;28;20033;-88
2022/09/11 15:48:48;;;;;;;8.10;5.93;;;19.90;99.90;;;;;;5004151;28;20513;-88
2022/09/11 15:51:16;;;;;;;8.82;6.03;;;19.80;99.90;;;;;;5005321;28;20054;-90
2022/09/11 15:53:43;;;;;;;9.38;4.90;;;19.80;99.90;;;;;;5004863;28;20030;-87
2022/09/11 15:56:11;;;;;;;10.10;5.50;;;19.80;99.90;;;;;;4997052;28;20031;-88
2022/09/11 15:58:41;;;;;;;8.18;5.63;;;19.90;99.90;;;;;;5003845;28;20149;-90
2022/09/11 16:01:18;;;;;;;7.10;4.95;;;19.90;99.90;;;;;;5008071;28;20065;-92
2022/09/11 16:03:48;;;;;;;9.38;5.07;;;20.10;99.90;;;;;;5002086;28;20081;-91
2022/09/11 16:06:13;;;;;;;10.40;6.10;;;20.20;99.90;;;;;;5002019;28;20061;-89
2022/09/11 16:08:39;;;;;;;8.65;5.30;;;20.20;99.90;;;;;;5007901;28;20100;-90
2022/09/11 16:11:05;;;;;;;7.72;4.82;;;20.30;99.90;;;;;;5006668;28;20033;-89
2022/09/11 16:13:31;;;;;;;8.57;5.90;;;20.40;99.90;;;;;;5005374;28;20461;-88
2022/09/11 16:16:01;;;;;;;9.73;6.05;;;20.30;99.90;;;;;;5007294;28;20442;-89
2022/09/11 16:18:27;;;;;;;8.75;5.95;;;20.20;99.90;;;;;;5012031;28;20498;-90
2022/09/11 16:20:57;;;;;;;8.88;5.50;;;20.20;99.90;;;;;;5011057;28;20026;-89
2022/09/11 16:23:24;;;;;;;9.63;5.18;;;20.10;99.90;;;;;;5009275;28;20112;-88
2022/09/11 16:25:50;;;;;;;10.35;5.90;;;20.10;99.90;;;;;;5010104;28;20553;-88
2022/09/11 16:28:16;;;;;;;9.45;5.50;;;20.00;99.90;;;;;;5011257;28;20120;-89
2022/09/11 16:30:41;;;;;;;10.75;5.95;;;20.00;99.90;;;;;;5005348;28;20109;-90
2022/09/11 16:33:11;;;;;;;6.97;4.93;;;19.90;99.90;;;;;;5011526;28;20033;-90
2022/09/11 16:35:56;;;;;;;10.25;6.43;;;19.90;99.90;;;;;;5009250;28;20061;-89
2022/09/11 16:38:24;;;;;;;11.93;5.85;;;19.80;99.90;;;;;;5006786;28;20169;-92
2022/09/11 16:40:58;;;;;;;8.43;5.00;;;19.80;99.90;;;;;;5011532;28;20057;-91
2022/09/11 16:43:23;;;;;;;7.85;5.65;;;19.80;99.90;;;;;;5003371;28;20499;-90
2022/09/11 16:45:51;;;;;;;6.95;4.70;;;19.80;99.90;;;;;;5008878;28;20072;-91
2022/09/11 16:48:16;;;;;;;11.35;5.25;;;19.70;99.90;;;;;;5007938;28;20036;-91
2022/09/11 16:50:42;;;;;;;9.35;5.20;;;19.60;99.90;;;;;;5007876;28;20030;-91
2022/09/11 16:53:09;;;;;;;10.50;6.10;;;19.40;99.90;;;;;;5009343;28;20147;-91
2022/09/11 16:55:37;;;;;;;9.40;5.30;;;19.30;99.90;;;;;;5007187;28;20029;-91
2022/09/11 16:58:02;;;;;;;10.35;4.95;;;19.10;99.90;;;;;;5007469;28;20120;-91
2022/09/11 17:00:28;;;;;;;9.07;5.75;;;19.00;99.90;;;;;;5002032;28;20118;-92
2022/09/11 17:02:54;;;;;;;10.48;5.88;;;18.80;99.90;;;;;;5012296;28;20609;-93
2022/09/11 17:05:19;;;;;;;7.40;4.90;;;18.70;99.90;;;;;;5006304;28;20045;-90
2022/09/11 17:07:45;;;;;;;7.88;4.85;;;18.60;99.90;;;;;;5004912;28;20029;-92
2022/09/11 17:10:10;;;;;;;7.15;5.55;;;18.50;99.90;;;;;;5005143;28;20026;-92
2022/09/11 17:12:36;;;;;;;7.30;5.63;;;18.40;99.90;;;;;;5006964;28;20133;-91
2022/09/11 17:15:02;;;;;;;7.60;5.43;;;18.30;99.90;;;;;;5007600;28;20030;-93
2022/09/11 17:17:28;;;;;;;12.93;6.30;;;18.20;99.90;;;;;;5006372;28;20041;-91
2022/09/11 17:19:57;;;;;;;12.43;6.28;;;18.20;99.90;;;;;;5008320;28;20029;-92
2022/09/11 17:22:26;;;;;;;12.20;5.93;;;18.10;99.90;;;;;;5008919;28;20049;-92
2022/09/11 17:24:52;;;;;;;15.40;5.95;;;18.00;99.90;;;;;;5005858;28;20029;-92
2022/09/11 17:27:18;;;;;;;10.02;6.47;;;17.90;99.90;;;;;;5006729;28;20042;-90
2022/09/11 17:29:47;;;;;;;8.52;6.57;;;17.70;99.90;;;;;;5006715;28;20525;-92
2022/09/11 17:32:19;;;;;;;8.35;5.78;;;17.60;99.90;;;;;;5008826;28;20030;-92
2022/09/11 17:34:46;;;;;;;9.68;5.82;;;17.50;99.90;;;;;;5005402;28;20472;-91
2022/09/11 17:37:11;;;;;;;7.65;5.82;;;17.40;99.90;;;;;;5007756;28;20096;-89
2022/09/11 17:39:41;;;;;;;9.05;6.13;;;17.30;99.90;;;;;;5010805;28;20026;-92
2022/09/11 17:42:07;;;;;;;8.30;5.95;;;17.20;99.90;;;;;;5008059;28;20361;-93
2022/09/11 17:44:32;;;;;;;12.63;5.80;;;17.10;99.90;;;;;;5005271;28;20029;-90
2022/09/11 17:47:01;;;;;;;11.07;6.55;;;17.00;99.90;;;;;;5010390;28;20033;-91
2022/09/11 17:49:30;;;;;;;9.20;6.70;;;16.90;99.90;;;;;;5001681;28;20401;-92
2022/09/11 17:51:57;;;;;;;7.60;5.70;;;16.80;99.90;;;;;;5009510;28;20014;-93
2022/09/11 17:54:26;;;;;;;7.25;5.75;;;16.60;99.90;;;;;;5008004;28;20033;-91
2022/09/11 17:56:53;;;;;;;6.57;5.88;;;16.50;99.90;;;;;;5006148;28;20052;-92
2022/09/11 17:59:22;;;;;;;7.10;5.55;;;16.50;99.90;;;;;;5006433;28;20096;-91
2022/09/11 18:01:53;;;;;;;10.20;6.57;;;16.40;99.90;;;;;;5005772;28;20472;-92
2022/09/11 18:04:21;;;;;;;8.02;6.05;;;16.30;99.90;;;;;;5006449;28;20065;-92
2022/09/11 18:06:46;;;;;;;8.48;6.25;;;16.20;99.90;;;;;;5009534;28;20038;-90
2022/09/11 18:09:18;;;;;;;9.20;6.20;;;16.10;99.90;;;;;;5006423;28;20483;-91
2022/09/11 18:11:46;;;;;;;8.32;5.75;;;16.00;99.90;;;;;;5006405;28;20262;-90
2022/09/11 18:14:13;;;;;;;8.73;5.55;;;15.90;99.90;;;;;;5001908;28;20029;-91
2022/09/11 18:16:45;;;;;;;10.98;6.45;;;15.80;99.90;;;;;;5008701;28;20030;-89
2022/09/11 18:19:12;;;;;;;9.68;5.95;;;15.80;99.90;;;;;;5008857;28;20057;-90
2022/09/11 18:21:38;;;;;;;10.45;7.10;;;15.70;99.90;;;;;;5008663;28;20057;-92
2022/09/11 18:24:07;;;;;;;8.35;7.10;;;15.60;99.90;;;;;;5008933;28;20474;-92
2022/09/11 18:26:39;;;;;;;10.57;6.28;;;15.60;99.90;;;;;;5007668;28;20570;-91
2022/09/11 18:29:09;;;;;;;9.70;6.80;;;15.50;99.90;;;;;;5009275;28;20041;-90
2022/09/11 18:31:45;;;;;;;10.95;7.22;;;15.50;99.90;;;;;;5003445;28;20369;-91
2022/09/11 18:34:14;;;;;;;11.60;7.20;;;15.40;99.90;;;;;;5005891;28;20021;-93
2022/09/11 18:36:39;;;;;;;10.75;7.05;;;15.40;99.90;;;;;;5007353;28;20033;-91
2022/09/11 18:39:05;;;;;;;11.75;7.00;;;15.40;99.90;;;;;;5006199;28;20112;-89
2022/09/11 18:41:36;;;;;;;12.52;6.40;;;15.30;99.90;;;;;;5006812;28;20030;-91
2022/09/11 18:44:07;;;;;;;11.75;6.38;;;15.30;99.90;;;;;;5000150;28;20089;-87
2022/09/11 18:46:33;;;;;;;9.65;6.70;;;15.30;99.90;;;;;;5004747;28;20041;-91
2022/09/11 18:48:59;;;;;;;10.02;6.45;;;15.20;99.90;;;;;;5005681;28;20033;-91
2022/09/11 18:51:28;;;;;;;13.48;7.38;;;15.10;99.90;;;;;;5005373;28;20033;-91
2022/09/11 18:53:54;;;;;;;12.18;6.55;;;15.10;99.90;;;;;;5005180;28;20182;-89
2022/09/11 18:56:26;;;;;;;9.93;6.45;;;15.10;99.90;;;;;;5007918;28;20033;-91
2022/09/11 18:58:51;;;;;;;8.23;6.80;;;15.10;99.90;;;;;;5009671;28;20033;-90
2022/09/11 19:01:22;;;;;;;8.32;6.80;;;15.00;99.90;;;;;;5001385;28;20034;-92
2022/09/11 19:03:50;;;;;;;9.25;6.20;;;15.00;99.90;;;;;;5007242;28;20033;-89
2022/09/11 19:06:19;;;;;;;9.32;6.80;;;15.00;99.90;;;;;;5008087;28;20034;-90
2022/09/11 19:08:46;;;;;;;11.05;6.43;;;15.00;99.90;;;;;;5005162;28;20462;-90
2022/09/11 19:11:17;;;;;;;9.95;6.07;;;14.90;99.90;;;;;;5005441;28;20396;-89
2022/09/11 19:13:44;;;;;;;10.40;6.35;;;15.00;99.90;;;;;;5001774;28;20061;-90
2022/09/11 19:16:11;;;;;;;9.32;6.65;;;15.00;99.90;;;;;;5007191;28;20033;-91
2022/09/11 19:18:37;;;;;;;8.65;6.78;;;14.90;99.90;;;;;;5006940;28;20034;-90
2022/09/11 19:21:15;;;;;;;17.65;7.20;;;14.90;99.90;;;;;;5006580;28;20032;-91
2022/09/11 19:23:43;;;;;;;8.43;5.90;;;15.00;99.90;;;;;;5005832;28;20483;-90
2022/09/11 19:26:31;;;;;;;8.90;6.43;;;15.00;99.90;;;;;;5006756;28;20423;-91
2022/09/11 19:29:00;;;;;;;10.73;6.40;;;15.00;99.90;;;;;;5005613;28;20041;-90
2022/09/11 19:31:30;;;;;;;7.22;5.68;;;14.90;99.90;;;;;;5004680;28;20044;-91
2022/09/11 19:34:00;;;;;;;8.52;6.15;;;14.90;99.90;;;;;;5006434;28;20021;-92
2022/09/11 19:36:28;;;;;;;6.78;5.28;;;14.90;99.90;;;;;;5005807;28;20380;-90
2022/09/11 19:38:54;;;;;;;12.57;6.43;;;14.90;99.90;;;;;;4999942;28;20032;-89
2022/09/11 19:41:22;;;;;;;13.30;6.80;;;14.80;99.90;;;;;;5006288;28;20490;-89
2022/09/11 19:43:49;;;;;;;9.32;6.50;;;14.80;99.90;;;;;;5005345;28;20089;-90
2022/09/11 19:46:17;;;;;;;8.05;5.68;;;14.80;99.90;;;;;;5005277;28;20084;-89
2022/09/11 19:48:47;;;;;;;9.70;6.30;;;14.70;99.90;;;;;;5003411;28;20495;-91
2022/09/11 19:51:16;;;;;;;9.18;6.60;;;14.70;99.90;;;;;;5005314;28;20037;-90
2022/09/11 19:53:42;;;;;;;11.02;6.07;;;14.70;99.90;;;;;;5011028;28;20036;-90
2022/09/11 19:56:11;;;;;;;8.35;6.00;;;14.60;99.90;;;;;;5012106;28;20029;-91
2022/09/11 19:58:39;;;;;;;11.55;6.20;;;14.60;99.90;;;;;;5011565;28;20025;-90
2022/09/11 20:01:10;;;;;;;10.02;6.50;;;14.50;99.90;;;;;;5010733;28;20030;-90
2022/09/11 20:03:37;;;;;;;10.25;6.50;;;14.50;99.90;;;;;;5006522;28;20029;-91
2022/09/11 20:06:03;;;;;;;10.30;5.95;;;14.50;99.90;;;;;;5010976;28;20029;-90
2022/09/11 20:08:29;;;;;;;11.57;6.47;;;14.50;99.90;;;;;;5011095;28;20076;-89
2022/09/11 20:10:55;;;;;;;13.70;6.95;;;14.50;99.90;;;;;;5010370;28;20326;-89
2022/09/11 20:13:21;;;;;;;13.95;6.82;;;14.50;99.90;;;;;;5008306;28;20120;-89
2022/09/11 20:15:47;;;;;;;6.88;5.95;;;14.50;99.90;;;;;;5009242;28;20579;-91
2022/09/11 20:18:13;;;;;;;7.25;5.70;;;14.40;99.90;;;;;;5007108;28;20048;-90
2022/09/11 20:20:40;;;;;;;9.68;6.80;;;14.40;99.90;;;;;;5008893;28;20041;-91
2022/09/11 20:23:09;;;;;;;7.03;5.68;;;14.40;99.90;;;;;;5007809;28;20566;-90
2022/09/11 20:25:38;;;;;;;9.07;6.07;;;14.50;99.90;;;;;;5011493;28;20056;-89
2022/09/11 20:28:03;;;;;;;10.00;6.28;;;14.50;99.90;;;;;;5008204;28;20062;-92
2022/09/11 20:30:31;;;;;;;10.85;6.75;;;14.50;99.90;;;;;;5007691;28;20064;-91
2022/09/11 20:32:58;;;;;;;13.82;5.95;;;14.40;99.90;;;;;;5011342;28;20037;-91
2022/09/11 20:35:26;;;;;;;9.55;5.25;;;14.40;99.90;;;;;;5008123;28;20037;-91
2022/09/11 20:37:52;;;;;;;9.98;5.72;;;14.30;99.90;;;;;;5006223;28;20030;-90
2022/09/11 20:40:18;;;;;;;6.38;5.38;;;14.30;99.90;;;;;;5009243;28;20033;-89
2022/09/11 20:42:44;;;;;;;9.80;5.63;;;14.30;99.90;;;;;;5011975;28;20415;-91
2022/09/11 20:45:10;;;;;;;7.25;5.38;;;14.30;99.90;;;;;;5006252;28;20132;-91
2022/09/11 20:47:35;;;;;;;6.45;5.22;;;14.30;99.90;;;;;;5008965;28;20050;-91
2022/09/11 20:50:01;;;;;;;12.38;5.45;;;14.30;99.90;;;;;;5010385;28;20489;-93
2022/09/11 20:52:27;;;;;;;9.50;5.18;;;14.20;99.90;;;;;;5005858;28;20034;-89
2022/09/11 20:54:53;;;;;;;9.73;5.20;;;14.20;99.90;;;;;;5009893;28;20021;-91
2022/09/11 20:57:19;;;;;;;8.40;5.85;;;14.20;99.90;;;;;;5009166;28;20045;-91
2022/09/11 20:59:45;;;;;;;7.88;5.22;;;14.20;99.90;;;;;;5003448;28;20026;-89
2022/09/11 21:02:12;;;;;;;8.63;5.55;;;14.20;99.90;;;;;;5013057;28;20057;-90
2022/09/11 21:04:38;;;;;;;7.40;5.35;;;14.10;99.90;;;;;;5005261;28;20037;-90
2022/09/11 21:07:06;;;;;;;8.27;5.43;;;14.20;99.90;;;;;;5008387;28;20022;-91
2022/09/11 21:09:32;;;;;;;6.60;4.63;;;14.10;99.90;;;;;;5010224;28;20026;-88
2022/09/11 21:12:01;;;;;;;15.30;5.03;;;14.10;99.90;;;;;;5008135;28;20064;-91
2022/09/11 21:14:26;;;;;;;11.30;5.00;;;14.10;99.90;;;;;;5012041;28;20030;-91
2022/09/11 21:16:55;;;;;;;6.90;4.70;;;14.10;99.90;;;;;;5010925;28;20022;-90
2022/09/11 21:19:20;;;;;;;7.88;4.47;;;14.10;99.90;;;;;;5011245;28;20030;-91
2022/09/11 21:21:49;;;;;;;9.90;5.25;;;14.10;99.90;;;;;;5010524;28;20129;-91
2022/09/11 21:24:17;;;;;;;9.50;5.00;;;14.10;99.90;;;;;;5008776;28;20116;-91
2022/09/11 21:26:43;;;;;;;6.28;4.88;;;14.00;99.90;;;;;;5009332;28;20038;-91
2022/09/11 21:29:11;;;;;;;7.15;4.93;;;14.00;99.90;;;;;;5009917;28;20033;-92
2022/09/11 21:31:36;;;;;;;5.20;4.30;;;13.90;99.90;;;;;;5008721;28;20034;-90
2022/09/11 21:34:05;;;;;;;10.05;5.13;;;13.90;99.90;;;;;;5007502;28;20042;-88
2022/09/11 21:36:32;;;;;;;5.82;4.32;;;13.90;99.90;;;;;;5008920;28;20493;-93
2022/09/11 21:38:57;;;;;;;5.65;4.43;;;13.90;99.90;;;;;;5006691;28;20523;-92
2022/09/11 21:41:23;;;;;;;5.53;4.05;;;13.90;99.90;;;;;;5006080;28;20054;-91
2022/09/11 21:43:48;;;;;;;9.00;4.65;;;13.80;99.90;;;;;;5009077;28;20209;-92
2022/09/11 21:46:14;;;;;;;8.15;4.63;;;13.80;99.90;;;;;;5004495;28;20053;-90
2022/09/11 21:48:40;;;;;;;10.48;4.75;;;13.80;99.90;;;;;;5009793;28;20084;-92
2022/09/11 21:51:16;;;;;;;6.05;4.65;;;13.80;99.90;;;;;;5008583;28;20442;-91
2022/09/11 21:53:44;;;;;;;10.80;5.00;;;13.70;99.90;;;;;;5008440;28;20030;-91
2022/09/11 21:56:23;;;;;;;12.07;4.70;;;13.70;99.90;;;;;;5006907;28;20031;-91
2022/09/11 21:58:50;;;;;;;7.32;4.45;;;13.60;99.90;;;;;;5009744;28;20107;-91
2022/09/11 22:01:16;;;;;;;13.23;4.75;;;13.70;99.90;;;;;;5009767;28;20551;-90
2022/09/11 22:03:41;;;;;;;10.93;5.13;;;13.70;99.90;;;;;;5012013;28;20304;-90
2022/09/11 22:06:14;;;;;;;11.85;4.53;;;13.60;99.90;;;;;;5007638;28;20129;-91
2022/09/11 22:08:41;;;;;;;8.18;4.80;;;13.60;99.90;;;;;;5010441;28;20253;-91
2022/09/11 22:11:07;;;;;;;6.57;4.40;;;13.60;99.90;;;;;;5006914;28;20116;-88
2022/09/11 22:13:36;;;;;;;7.47;4.95;;;13.60;99.90;;;;;;5009535;28;20563;-90
2022/09/11 22:16:11;;;;;;;7.93;5.18;;;13.60;99.90;;;;;;5002909;28;20033;-92
2022/09/11 22:18:38;;;;;;;6.35;4.53;;;13.60;99.90;;;;;;5007752;28;20025;-91
2022/09/11 22:21:04;;;;;;;11.73;4.95;;;13.50;99.90;;;;;;5004196;28;20472;-92
2022/09/11 22:23:30;;;;;;;7.72;4.70;;;13.50;99.90;;;;;;5007162;28;20054;-92
2022/09/11 22:26:02;;;;;;;7.65;4.97;;;13.50;99.90;;;;;;5007561;28;20033;-90
2022/09/11 22:28:28;;;;;;;8.98;5.35;;;13.50;99.90;;;;;;5010712;28;20038;-91
2022/09/11 22:30:54;;;;;;;7.78;4.72;;;13.40;99.90;;;;;;5004120;28;20022;-91
2022/09/11 22:33:19;;;;;;;6.63;4.05;;;13.40;99.90;;;;;;5007491;28;20105;-89
2022/09/11 22:35:46;;;;;;;6.50;4.68;;;13.40;99.90;;;;;;5006029;28;20117;-90
2022/09/11 22:38:11;;;;;;;5.43;4.20;;;13.40;99.90;;;;;;5001628;28;20423;-89
2022/09/11 22:40:37;;;;;;;5.05;4.47;;;13.40;99.90;;;;;;5006488;28;20487;-91
2022/09/11 22:43:03;;;;;;;7.22;4.80;;;13.40;99.90;;;;;;5006759;28;20029;-92
2022/09/11 22:45:28;;;;;;;8.52;5.07;;;13.30;99.90;;;;;;5008012;28;20042;-92
2022/09/11 22:47:54;;;;;;;5.38;4.20;;;13.40;99.90;;;;;;5008718;28;20439;-90
2022/09/11 22:50:19;;;;;;;5.90;4.45;;;13.40;99.90;;;;;;5007934;28;20032;-90
2022/09/11 22:52:45;;;;;;;5.15;4.07;;;13.40;99.90;;;;;;5011753;28;20479;-91
2022/09/11 22:55:11;;;;;;;7.40;4.20;;;13.40;99.90;;;;;;5003531;28;20121;-92
2022/09/11 22:57:37;;;;;;;5.97;4.38;;;13.40;99.90;;;;;;5007954;28;20427;-90
2022/09/11 23:00:08;;;;;;;5.97;3.78;;;13.40;99.90;;;;;;5006477;28;20025;-92
2022/09/11 23:02:34;;;;;;;5.10;4.30;;;13.40;99.90;;;;;;5006621;28;20038;-91
2022/09/11 23:07:48;;;;;;;6.82;4.82;;;13.30;99.90;;;;;;5003776;28;20029;-91
2022/09/11 23:10:13;;;;;;;4.82;4.07;;;13.30;99.90;;;;;;5008962;28;20517;-92
2022/09/11 23:12:39;;;;;;;6.32;4.28;;;13.30;99.90;;;;;;5009506;28;20033;-92
2022/09/11 23:15:05;;;;;;;5.78;4.68;;;13.30;99.90;;;;;;5008657;28;20025;-92
2022/09/11 23:17:31;;;;;;;6.65;4.68;;;13.20;99.90;;;;;;5008825;28;20069;-89
2022/09/11 23:19:56;;;;;;;8.13;4.47;;;13.20;99.90;;;;;;5007551;28;20049;-89
2022/09/11 23:22:22;;;;;;;6.13;4.35;;;13.10;99.90;;;;;;5004801;28;20473;-91
2022/09/11 23:24:47;;;;;;;5.40;4.55;;;13.10;99.90;;;;;;5008524;28;20029;-91
2022/09/11 23:27:13;;;;;;;5.85;4.13;;;13.10;99.90;;;;;;5006488;28;20030;-92
2022/09/11 23:29:38;;;;;;;5.22;4.30;;;13.10;99.90;;;;;;5008123;28;20030;-91
2022/09/11 23:32:04;;;;;;;5.40;4.30;;;13.00;99.90;;;;;;5004771;28;20467;-91
2022/09/11 23:34:29;;;;;;;6.78;4.10;;;13.10;99.90;;;;;;5009344;28;20514;-91
2022/09/11 23:36:55;;;;;;;5.63;4.53;;;13.10;99.90;;;;;;5004055;28;20065;-90
2022/09/11 23:39:20;;;;;;;4.15;3.75;;;13.10;99.90;;;;;;5004914;28;20040;-91
2022/09/11 23:41:46;;;;;;;4.68;3.42;;;13.10;99.90;;;;;;5005112;28;20045;-91
2022/09/11 23:44:12;;;;;;;6.28;4.40;;;13.10;99.90;;;;;;5009480;28;20111;-91
2022/09/11 23:46:37;;;;;;;5.90;3.97;;;13.00;99.90;;;;;;5003226;28;20038;-91
2022/09/11 23:49:05;;;;;;;4.93;4.05;;;13.00;99.90;;;;;;5003441;28;20014;-92
2022/09/11 23:51:30;;;;;;;4.65;4.00;;;13.00;99.90;;;;;;5007491;28;20038;-92
2022/09/11 23:53:56;;;;;;;5.15;4.07;;;13.00;99.90;;;;;;5009232;28;20030;-90
2022/09/11 23:56:21;;;;;;;6.78;4.25;;;12.90;99.90;;;;;;5008578;28;20022;-90
2022/09/11 23:58:47;;;;;;;6.07;4.05;;;12.90;99.90;;;;;;5006583;28;20031;-92
